sensor_id;sensor_type;location;lat;lon;timestamp;temperature;humidity
13346;DHT22;6742;48.036;15.780;2023-02-03T00:00:49;2.30;99.90
13346;DHT22;6742;48.036;15.780;2023-02-03T00:03:16;2.30;99.90
13346;DHT22;6742;48.036;15.780;2023-02-03T00:05:43;2.40;99.90
13346;DHT22;6742;48.036;15.780;2023-02-03T00:08:20;2.40;99.90
13346;DHT22;6742;48.036;15.780;2023-02-03T00:10:48;2.40;99.90
13346;DHT22;6742;48.036;15.780;2023-02-03T00:13:15;2.40;99.90
13346;DHT22;6742;48.036;15.780;2023-02-03T00:15:42;2.30;99.90
13346;DHT22;6742;48.036;15.780;2023-02-03T00:18:09;2.30;99.90
13346;DHT22;6742;48.036;15.780;2023-02-03T00:20:36;2.30;99.90
13346;DHT22;6742;48.036;15.780;2023-02-03T00:23:04;2.20;99.90
13346;DHT22;6742;48.036;15.780;2023-02-03T00:25:32;2.20;99.90
13346;DHT22;6742;48.036;15.780;2023-02-03T00:28:03;2.20;99.90
13346;DHT22;6742;48.036;15.780;2023-02-03T00:30:30;2.20;99.90
13346;DHT22;6742;48.036;15.780;2023-02-03T00:32:59;2.20;99.90
13346;DHT22;6742;48.036;15.780;2023-02-03T00:35:26;2.20;99.90
13346;DHT22;6742;48.036;15.780;2023-02-03T00:37:54;2.20;99.90
13346;DHT22;6742;48.036;15.780;2023-02-03T00:40:22;2.20;99.90
13346;DHT22;6742;48.036;15.780;2023-02-03T00:42:51;2.20;99.90
13346;DHT22;6742;48.036;15.780;2023-02-03T00:45:19;2.20;99.90
13346;DHT22;6742;48.036;15.780;2023-02-03T00:47:46;2.20;99.90
13346;DHT22;6742;48.036;15.780;2023-02-03T00:50:13;2.10;99.90
13346;DHT22;6742;48.036;15.780;2023-02-03T00:52:40;2.10;99.90
13346;DHT22;6742;48.036;15.780;2023-02-03T00:55:07;2.10;99.90
13346;DHT22;6742;48.036;15.780;2023-02-03T00:57:35;2.10;99.90
13346;DHT22;6742;48.036;15.780;2023-02-03T01:00:04;2.20;99.90
13346;DHT22;6742;48.036;15.780;2023-02-03T01:02:31;2.20;99.90
13346;DHT22;6742;48.036;15.780;2023-02-03T01:04:58;2.20;99.90
13346;DHT22;6742;48.036;15.780;2023-02-03T01:07:25;2.20;99.90
13346;DHT22;6742;48.036;15.780;2023-02-03T01:09:52;2.20;99.90
13346;DHT22;6742;48.036;15.780;2023-02-03T01:12:22;2.20;99.90
13346;DHT22;6742;48.036;15.780;2023-02-03T01:14:49;2.10;99.90
13346;DHT22;6742;48.036;15.780;2023-02-03T01:17:20;2.00;99.90
13346;DHT22;6742;48.036;15.780;2023-02-03T01:19:46;2.00;99.90
13346;DHT22;6742;48.036;15.780;2023-02-03T01:22:14;2.00;99.90
13346;DHT22;6742;48.036;15.780;2023-02-03T01:24:40;1.90;99.90
13346;DHT22;6742;48.036;15.780;2023-02-03T01:27:07;1.90;99.90
13346;DHT22;6742;48.036;15.780;2023-02-03T01:29:35;1.90;99.90
13346;DHT22;6742;48.036;15.780;2023-02-03T01:32:02;1.80;99.90
13346;DHT22;6742;48.036;15.780;2023-02-03T01:34:30;1.80;99.90
13346;DHT22;6742;48.036;15.780;2023-02-03T01:36:57;1.80;99.90
13346;DHT22;6742;48.036;15.780;2023-02-03T01:39:24;1.70;99.90
13346;DHT22;6742;48.036;15.780;2023-02-03T01:41:54;1.70;99.90
13346;DHT22;6742;48.036;15.780;2023-02-03T01:44:38;1.70;99.90
13346;DHT22;6742;48.036;15.780;2023-02-03T01:47:22;1.70;99.90
13346;DHT22;6742;48.036;15.780;2023-02-03T01:49:59;1.70;99.90
13346;DHT22;6742;48.036;15.780;2023-02-03T01:52:28;1.70;99.90
13346;DHT22;6742;48.036;15.780;2023-02-03T01:54:56;1.70;99.90
13346;DHT22;6742;48.036;15.780;2023-02-03T01:57:29;1.70;99.90
13346;DHT22;6742;48.036;15.780;2023-02-03T01:59:58;1.70;99.90
13346;DHT22;6742;48.036;15.780;2023-02-03T02:02:26;1.70;99.90
13346;DHT22;6742;48.036;15.780;2023-02-03T02:04:57;1.70;99.90
13346;DHT22;6742;48.036;15.780;2023-02-03T02:07:25;1.70;99.90
13346;DHT22;6742;48.036;15.780;2023-02-03T02:09:54;1.70;99.90
13346;DHT22;6742;48.036;15.780;2023-02-03T02:12:21;1.70;99.90
13346;DHT22;6742;48.036;15.780;2023-02-03T02:14:48;1.70;99.90
13346;DHT22;6742;48.036;15.780;2023-02-03T02:17:37;1.70;99.90
13346;DHT22;6742;48.036;15.780;2023-02-03T02:20:47;1.80;99.90
13346;DHT22;6742;48.036;15.780;2023-02-03T02:26:48;1.70;99.90
13346;DHT22;6742;48.036;15.780;2023-02-03T02:29:35;1.80;99.90
13346;DHT22;6742;48.036;15.780;2023-02-03T02:32:20;1.80;99.90
13346;DHT22;6742;48.036;15.780;2023-02-03T02:34:58;1.80;99.90
13346;DHT22;6742;48.036;15.780;2023-02-03T02:37:36;1.80;99.90
13346;DHT22;6742;48.036;15.780;2023-02-03T02:40:11;1.80;99.90
13346;DHT22;6742;48.036;15.780;2023-02-03T02:42:49;1.90;99.90
13346;DHT22;6742;48.036;15.780;2023-02-03T02:45:23;1.80;99.90
13346;DHT22;6742;48.036;15.780;2023-02-03T02:48:00;1.90;99.90
13346;DHT22;6742;48.036;15.780;2023-02-03T02:50:32;1.90;99.90
13346;DHT22;6742;48.036;15.780;2023-02-03T02:53:01;1.90;99.90
13346;DHT22;6742;48.036;15.780;2023-02-03T02:55:31;1.90;99.90
13346;DHT22;6742;48.036;15.780;2023-02-03T02:58:07;1.90;99.90
13346;DHT22;6742;48.036;15.780;2023-02-03T03:00:35;1.90;99.90
13346;DHT22;6742;48.036;15.780;2023-02-03T03:03:11;1.80;99.90
13346;DHT22;6742;48.036;15.780;2023-02-03T03:05:41;1.90;99.90
13346;DHT22;6742;48.036;15.780;2023-02-03T03:08:09;1.90;99.90
13346;DHT22;6742;48.036;15.780;2023-02-03T03:10:40;1.80;99.90
13346;DHT22;6742;48.036;15.780;2023-02-03T03:13:15;1.80;99.90
13346;DHT22;6742;48.036;15.780;2023-02-03T03:15:47;1.80;99.90
13346;DHT22;6742;48.036;15.780;2023-02-03T03:18:21;1.80;99.90
13346;DHT22;6742;48.036;15.780;2023-02-03T03:20:52;1.70;99.90
13346;DHT22;6742;48.036;15.780;2023-02-03T03:23:23;1.70;99.90
13346;DHT22;6742;48.036;15.780;2023-02-03T03:25:54;1.70;99.90
13346;DHT22;6742;48.036;15.780;2023-02-03T03:28:29;1.80;99.90
13346;DHT22;6742;48.036;15.780;2023-02-03T03:30:59;1.70;99.90
13346;DHT22;6742;48.036;15.780;2023-02-03T03:33:28;1.70;99.90
13346;DHT22;6742;48.036;15.780;2023-02-03T03:36:00;1.70;99.90
13346;DHT22;6742;48.036;15.780;2023-02-03T03:38:33;1.70;99.90
13346;DHT22;6742;48.036;15.780;2023-02-03T03:41:06;1.70;99.90
13346;DHT22;6742;48.036;15.780;2023-02-03T03:43:37;1.70;99.90
13346;DHT22;6742;48.036;15.780;2023-02-03T03:46:10;1.70;99.90
13346;DHT22;6742;48.036;15.780;2023-02-03T03:48:43;1.70;99.90
13346;DHT22;6742;48.036;15.780;2023-02-03T03:51:17;1.60;99.90
13346;DHT22;6742;48.036;15.780;2023-02-03T03:53:49;1.60;99.90
13346;DHT22;6742;48.036;15.780;2023-02-03T03:56:23;1.60;99.90
13346;DHT22;6742;48.036;15.780;2023-02-03T03:58:51;1.60;99.90
13346;DHT22;6742;48.036;15.780;2023-02-03T04:01:20;1.60;99.90
13346;DHT22;6742;48.036;15.780;2023-02-03T04:03:54;1.60;99.90
13346;DHT22;6742;48.036;15.780;2023-02-03T04:06:22;1.60;99.90
13346;DHT22;6742;48.036;15.780;2023-02-03T04:08:49;1.60;99.90
13346;DHT22;6742;48.036;15.780;2023-02-03T04:11:16;1.60;99.90
13346;DHT22;6742;48.036;15.780;2023-02-03T04:13:57;1.70;99.90
13346;DHT22;6742;48.036;15.780;2023-02-03T04:16:24;1.70;99.90
13346;DHT22;6742;48.036;15.780;2023-02-03T04:18:52;1.70;99.90
13346;DHT22;6742;48.036;15.780;2023-02-03T04:21:19;1.80;99.90
13346;DHT22;6742;48.036;15.780;2023-02-03T04:23:46;1.80;99.90
13346;DHT22;6742;48.036;15.780;2023-02-03T04:26:13;1.90;99.90
13346;DHT22;6742;48.036;15.780;2023-02-03T04:28:40;1.90;99.90
13346;DHT22;6742;48.036;15.780;2023-02-03T04:31:07;1.90;99.90
13346;DHT22;6742;48.036;15.780;2023-02-03T04:33:33;1.90;99.90
13346;DHT22;6742;48.036;15.780;2023-02-03T04:36:02;2.00;99.90
13346;DHT22;6742;48.036;15.780;2023-02-03T04:38:29;2.00;99.90
13346;DHT22;6742;48.036;15.780;2023-02-03T04:40:57;2.10;99.90
13346;DHT22;6742;48.036;15.780;2023-02-03T04:43:24;2.10;99.90
13346;DHT22;6742;48.036;15.780;2023-02-03T04:45:51;2.10;99.90
13346;DHT22;6742;48.036;15.780;2023-02-03T04:48:18;2.20;99.90
13346;DHT22;6742;48.036;15.780;2023-02-03T04:50:45;2.20;99.90
13346;DHT22;6742;48.036;15.780;2023-02-03T04:53:13;2.20;99.90
13346;DHT22;6742;48.036;15.780;2023-02-03T04:55:40;2.20;99.90
13346;DHT22;6742;48.036;15.780;2023-02-03T04:58:08;2.20;99.90
13346;DHT22;6742;48.036;15.780;2023-02-03T05:00:35;2.20;99.90
13346;DHT22;6742;48.036;15.780;2023-02-03T05:03:01;2.30;99.90
13346;DHT22;6742;48.036;15.780;2023-02-03T05:05:28;2.30;99.90
13346;DHT22;6742;48.036;15.780;2023-02-03T05:07:55;2.20;99.90
13346;DHT22;6742;48.036;15.780;2023-02-03T05:10:26;2.30;99.90
13346;DHT22;6742;48.036;15.780;2023-02-03T05:12:52;2.30;99.90
13346;DHT22;6742;48.036;15.780;2023-02-03T05:15:19;2.30;99.90
13346;DHT22;6742;48.036;15.780;2023-02-03T05:17:46;2.40;99.90
13346;DHT22;6742;48.036;15.780;2023-02-03T05:20:13;2.40;99.90
13346;DHT22;6742;48.036;15.780;2023-02-03T05:22:40;2.40;99.90
13346;DHT22;6742;48.036;15.780;2023-02-03T05:25:08;2.40;99.90
13346;DHT22;6742;48.036;15.780;2023-02-03T05:27:37;2.40;99.90
13346;DHT22;6742;48.036;15.780;2023-02-03T05:30:05;2.40;99.90
13346;DHT22;6742;48.036;15.780;2023-02-03T05:32:32;2.40;99.90
13346;DHT22;6742;48.036;15.780;2023-02-03T05:34:59;2.40;99.90
13346;DHT22;6742;48.036;15.780;2023-02-03T05:37:26;2.40;99.90
13346;DHT22;6742;48.036;15.780;2023-02-03T05:39:56;2.40;99.90
13346;DHT22;6742;48.036;15.780;2023-02-03T05:42:48;2.40;99.90
13346;DHT22;6742;48.036;15.780;2023-02-03T05:45:14;2.40;99.90
13346;DHT22;6742;48.036;15.780;2023-02-03T05:47:41;2.50;99.90
13346;DHT22;6742;48.036;15.780;2023-02-03T05:50:08;2.50;99.90
13346;DHT22;6742;48.036;15.780;2023-02-03T05:52:35;2.40;99.90
13346;DHT22;6742;48.036;15.780;2023-02-03T05:55:02;2.50;99.90
13346;DHT22;6742;48.036;15.780;2023-02-03T05:57:29;2.50;99.90
13346;DHT22;6742;48.036;15.780;2023-02-03T05:59:57;2.50;99.90
13346;DHT22;6742;48.036;15.780;2023-02-03T06:02:24;2.50;99.90
13346;DHT22;6742;48.036;15.780;2023-02-03T06:04:51;2.50;99.90
13346;DHT22;6742;48.036;15.780;2023-02-03T06:07:18;2.50;99.90
13346;DHT22;6742;48.036;15.780;2023-02-03T06:09:45;2.50;99.90
13346;DHT22;6742;48.036;15.780;2023-02-03T06:12:15;2.50;99.90
13346;DHT22;6742;48.036;15.780;2023-02-03T06:14:44;2.50;99.90
13346;DHT22;6742;48.036;15.780;2023-02-03T06:17:12;2.50;99.90
13346;DHT22;6742;48.036;15.780;2023-02-03T06:19:39;2.50;99.90
13346;DHT22;6742;48.036;15.780;2023-02-03T06:22:06;2.50;99.90
13346;DHT22;6742;48.036;15.780;2023-02-03T06:24:33;2.50;99.90
13346;DHT22;6742;48.036;15.780;2023-02-03T06:27:00;2.50;99.90
13346;DHT22;6742;48.036;15.780;2023-02-03T06:29:27;2.50;99.90
13346;DHT22;6742;48.036;15.780;2023-02-03T06:31:54;2.60;99.90
13346;DHT22;6742;48.036;15.780;2023-02-03T06:34:22;2.60;99.90
13346;DHT22;6742;48.036;15.780;2023-02-03T06:36:49;2.50;99.90
13346;DHT22;6742;48.036;15.780;2023-02-03T06:39:16;2.50;99.90
13346;DHT22;6742;48.036;15.780;2023-02-03T06:41:43;2.50;99.90
13346;DHT22;6742;48.036;15.780;2023-02-03T06:44:10;2.60;99.90
13346;DHT22;6742;48.036;15.780;2023-02-03T06:46:40;2.60;99.90
13346;DHT22;6742;48.036;15.780;2023-02-03T06:49:07;2.60;99.90
13346;DHT22;6742;48.036;15.780;2023-02-03T06:51:36;2.60;99.90
13346;DHT22;6742;48.036;15.780;2023-02-03T06:54:03;2.60;99.90
13346;DHT22;6742;48.036;15.780;2023-02-03T06:56:30;2.60;99.90
13346;DHT22;6742;48.036;15.780;2023-02-03T06:58:57;2.70;99.90
13346;DHT22;6742;48.036;15.780;2023-02-03T07:01:24;2.70;99.90
13346;DHT22;6742;48.036;15.780;2023-02-03T07:03:51;2.70;99.90
13346;DHT22;6742;48.036;15.780;2023-02-03T07:06:19;2.70;99.90
13346;DHT22;6742;48.036;15.780;2023-02-03T07:08:47;2.80;99.90
13346;DHT22;6742;48.036;15.780;2023-02-03T07:11:14;2.90;99.90
13346;DHT22;6742;48.036;15.780;2023-02-03T07:13:41;2.80;99.90
13346;DHT22;6742;48.036;15.780;2023-02-03T07:16:08;2.80;99.90
13346;DHT22;6742;48.036;15.780;2023-02-03T07:18:35;2.90;99.90
13346;DHT22;6742;48.036;15.780;2023-02-03T07:21:03;2.90;99.90
13346;DHT22;6742;48.036;15.780;2023-02-03T07:23:31;2.90;99.90
13346;DHT22;6742;48.036;15.780;2023-02-03T07:26:00;3.00;99.90
13346;DHT22;6742;48.036;15.780;2023-02-03T07:28:27;3.00;99.90
13346;DHT22;6742;48.036;15.780;2023-02-03T07:30:54;3.10;99.90
13346;DHT22;6742;48.036;15.780;2023-02-03T07:33:21;3.10;99.90
13346;DHT22;6742;48.036;15.780;2023-02-03T07:35:51;3.10;99.90
13346;DHT22;6742;48.036;15.780;2023-02-03T07:38:18;3.10;99.90
13346;DHT22;6742;48.036;15.780;2023-02-03T07:40:45;3.20;99.90
13346;DHT22;6742;48.036;15.780;2023-02-03T07:43:13;3.20;99.90
13346;DHT22;6742;48.036;15.780;2023-02-03T07:45:41;3.20;99.90
13346;DHT22;6742;48.036;15.780;2023-02-03T07:48:08;3.30;99.90
13346;DHT22;6742;48.036;15.780;2023-02-03T07:50:35;3.20;99.90
13346;DHT22;6742;48.036;15.780;2023-02-03T07:53:02;3.20;99.90
13346;DHT22;6742;48.036;15.780;2023-02-03T07:55:29;3.30;99.90
13346;DHT22;6742;48.036;15.780;2023-02-03T07:57:58;3.30;99.90
13346;DHT22;6742;48.036;15.780;2023-02-03T08:00:26;3.30;99.90
13346;DHT22;6742;48.036;15.780;2023-02-03T08:02:53;3.30;99.90
13346;DHT22;6742;48.036;15.780;2023-02-03T08:05:20;3.30;99.90
13346;DHT22;6742;48.036;15.780;2023-02-03T08:07:47;3.40;99.90
13346;DHT22;6742;48.036;15.780;2023-02-03T08:10:14;3.40;99.90
13346;DHT22;6742;48.036;15.780;2023-02-03T08:12:42;3.40;99.90
13346;DHT22;6742;48.036;15.780;2023-02-03T08:15:12;3.40;99.90
13346;DHT22;6742;48.036;15.780;2023-02-03T08:17:40;3.40;99.90
13346;DHT22;6742;48.036;15.780;2023-02-03T08:20:10;3.40;99.90
13346;DHT22;6742;48.036;15.780;2023-02-03T08:22:37;3.50;99.90
13346;DHT22;6742;48.036;15.780;2023-02-03T08:25:05;3.50;99.90
13346;DHT22;6742;48.036;15.780;2023-02-03T08:27:32;3.50;99.90
13346;DHT22;6742;48.036;15.780;2023-02-03T08:29:59;3.50;99.90
13346;DHT22;6742;48.036;15.780;2023-02-03T08:32:26;3.60;99.90
13346;DHT22;6742;48.036;15.780;2023-02-03T08:34:57;3.60;99.90
13346;DHT22;6742;48.036;15.780;2023-02-03T08:37:25;3.60;99.90
13346;DHT22;6742;48.036;15.780;2023-02-03T08:39:53;3.60;99.90
13346;DHT22;6742;48.036;15.780;2023-02-03T08:42:20;3.70;99.90
13346;DHT22;6742;48.036;15.780;2023-02-03T08:44:47;3.70;99.90
13346;DHT22;6742;48.036;15.780;2023-02-03T08:47:14;3.80;99.90
13346;DHT22;6742;48.036;15.780;2023-02-03T08:49:41;3.80;99.90
13346;DHT22;6742;48.036;15.780;2023-02-03T08:52:10;3.90;99.90
13346;DHT22;6742;48.036;15.780;2023-02-03T08:54:38;3.80;99.90
13346;DHT22;6742;48.036;15.780;2023-02-03T08:57:05;4.00;99.90
13346;DHT22;6742;48.036;15.780;2023-02-03T08:59:33;3.90;99.90
13346;DHT22;6742;48.036;15.780;2023-02-03T09:02:01;4.10;99.90
13346;DHT22;6742;48.036;15.780;2023-02-03T09:04:28;4.00;99.90
13346;DHT22;6742;48.036;15.780;2023-02-03T09:06:55;4.10;99.90
13346;DHT22;6742;48.036;15.780;2023-02-03T09:09:25;4.10;99.90
13346;DHT22;6742;48.036;15.780;2023-02-03T09:11:53;4.10;99.90
13346;DHT22;6742;48.036;15.780;2023-02-03T09:14:27;4.20;99.90
13346;DHT22;6742;48.036;15.780;2023-02-03T09:16:54;4.20;99.90
13346;DHT22;6742;48.036;15.780;2023-02-03T09:19:21;4.20;99.90
13346;DHT22;6742;48.036;15.780;2023-02-03T09:21:47;4.30;99.90
13346;DHT22;6742;48.036;15.780;2023-02-03T09:24:15;4.30;99.90
13346;DHT22;6742;48.036;15.780;2023-02-03T09:26:44;4.40;99.90
13346;DHT22;6742;48.036;15.780;2023-02-03T09:29:11;4.40;99.90
13346;DHT22;6742;48.036;15.780;2023-02-03T09:31:38;4.40;99.90
13346;DHT22;6742;48.036;15.780;2023-02-03T09:34:09;4.40;99.90
13346;DHT22;6742;48.036;15.780;2023-02-03T09:36:36;4.40;99.90
13346;DHT22;6742;48.036;15.780;2023-02-03T09:39:03;4.40;99.90
13346;DHT22;6742;48.036;15.780;2023-02-03T09:42:04;4.40;99.90
13346;DHT22;6742;48.036;15.780;2023-02-03T09:44:38;4.40;99.90
13346;DHT22;6742;48.036;15.780;2023-02-03T09:47:12;4.40;99.90
13346;DHT22;6742;48.036;15.780;2023-02-03T09:49:44;4.40;99.90
13346;DHT22;6742;48.036;15.780;2023-02-03T09:52:16;4.40;99.90
13346;DHT22;6742;48.036;15.780;2023-02-03T09:54:48;4.40;99.90
13346;DHT22;6742;48.036;15.780;2023-02-03T09:57:21;4.40;99.90
13346;DHT22;6742;48.036;15.780;2023-02-03T09:59:48;4.50;99.90
13346;DHT22;6742;48.036;15.780;2023-02-03T10:02:29;4.50;99.90
13346;DHT22;6742;48.036;15.780;2023-02-03T10:05:03;4.50;99.90
13346;DHT22;6742;48.036;15.780;2023-02-03T10:07:41;4.50;99.90
13346;DHT22;6742;48.036;15.780;2023-02-03T10:10:16;4.60;99.90
13346;DHT22;6742;48.036;15.780;2023-02-03T10:12:57;4.60;99.90
13346;DHT22;6742;48.036;15.780;2023-02-03T10:15:48;4.70;99.90
13346;DHT22;6742;48.036;15.780;2023-02-03T10:18:20;4.70;99.90
13346;DHT22;6742;48.036;15.780;2023-02-03T10:20:50;4.70;99.90
13346;DHT22;6742;48.036;15.780;2023-02-03T10:23:23;4.60;99.90
13346;DHT22;6742;48.036;15.780;2023-02-03T10:25:56;4.60;99.90
13346;DHT22;6742;48.036;15.780;2023-02-03T10:28:29;4.60;99.90
13346;DHT22;6742;48.036;15.780;2023-02-03T10:30:57;4.60;99.90
13346;DHT22;6742;48.036;15.780;2023-02-03T10:33:26;4.60;99.90
13346;DHT22;6742;48.036;15.780;2023-02-03T10:35:58;4.50;99.90
13346;DHT22;6742;48.036;15.780;2023-02-03T10:38:38;4.60;99.90
13346;DHT22;6742;48.036;15.780;2023-02-03T10:41:07;4.70;99.90
13346;DHT22;6742;48.036;15.780;2023-02-03T10:43:36;4.70;99.90
13346;DHT22;6742;48.036;15.780;2023-02-03T10:46:20;4.70;99.90
13346;DHT22;6742;48.036;15.780;2023-02-03T10:48:47;4.80;99.90
13346;DHT22;6742;48.036;15.780;2023-02-03T10:51:19;4.70;99.90
13346;DHT22;6742;48.036;15.780;2023-02-03T10:53:47;4.80;99.90
13346;DHT22;6742;48.036;15.780;2023-02-03T10:56:19;4.80;99.90
13346;DHT22;6742;48.036;15.780;2023-02-03T10:58:52;4.80;99.90
13346;DHT22;6742;48.036;15.780;2023-02-03T11:01:22;4.90;99.90
13346;DHT22;6742;48.036;15.780;2023-02-03T11:03:57;4.80;99.90
13346;DHT22;6742;48.036;15.780;2023-02-03T11:06:25;4.80;99.90
13346;DHT22;6742;48.036;15.780;2023-02-03T11:08:53;4.70;99.90
13346;DHT22;6742;48.036;15.780;2023-02-03T11:11:22;4.70;99.90
13346;DHT22;6742;48.036;15.780;2023-02-03T11:14:14;4.70;99.90
13346;DHT22;6742;48.036;15.780;2023-02-03T11:16:42;4.70;99.90
13346;DHT22;6742;48.036;15.780;2023-02-03T11:19:15;4.80;99.90
13346;DHT22;6742;48.036;15.780;2023-02-03T11:21:45;4.70;99.90
13346;DHT22;6742;48.036;15.780;2023-02-03T11:24:17;4.70;99.90
13346;DHT22;6742;48.036;15.780;2023-02-03T11:26:47;4.60;99.90
13346;DHT22;6742;48.036;15.780;2023-02-03T11:29:20;4.60;99.90
13346;DHT22;6742;48.036;15.780;2023-02-03T11:31:50;4.70;99.90
13346;DHT22;6742;48.036;15.780;2023-02-03T11:34:19;4.70;99.90
13346;DHT22;6742;48.036;15.780;2023-02-03T11:36:49;4.70;99.90
13346;DHT22;6742;48.036;15.780;2023-02-03T11:39:19;4.70;99.90
13346;DHT22;6742;48.036;15.780;2023-02-03T11:41:48;4.70;99.90
13346;DHT22;6742;48.036;15.780;2023-02-03T11:44:19;4.70;99.90
13346;DHT22;6742;48.036;15.780;2023-02-03T11:46:48;4.80;99.90
13346;DHT22;6742;48.036;15.780;2023-02-03T11:49:33;4.80;99.90
13346;DHT22;6742;48.036;15.780;2023-02-03T11:52:08;4.80;99.90
13346;DHT22;6742;48.036;15.780;2023-02-03T11:54:46;4.80;99.90
13346;DHT22;6742;48.036;15.780;2023-02-03T11:57:24;4.90;99.90
13346;DHT22;6742;48.036;15.780;2023-02-03T12:00:02;4.90;99.90
13346;DHT22;6742;48.036;15.780;2023-02-03T12:05:46;5.00;99.90
13346;DHT22;6742;48.036;15.780;2023-02-03T12:08:26;5.00;99.90
13346;DHT22;6742;48.036;15.780;2023-02-03T12:11:04;5.00;99.90
13346;DHT22;6742;48.036;15.780;2023-02-03T12:13:50;5.00;99.90
13346;DHT22;6742;48.036;15.780;2023-02-03T12:16:44;4.90;99.90
13346;DHT22;6742;48.036;15.780;2023-02-03T12:19:18;4.90;99.90
13346;DHT22;6742;48.036;15.780;2023-02-03T12:21:53;4.80;99.90
13346;DHT22;6742;48.036;15.780;2023-02-03T12:24:30;4.80;99.90
13346;DHT22;6742;48.036;15.780;2023-02-03T12:27:12;4.80;99.90
13346;DHT22;6742;48.036;15.780;2023-02-03T12:29:44;4.80;99.90
13346;DHT22;6742;48.036;15.780;2023-02-03T12:32:18;4.80;99.90
13346;DHT22;6742;48.036;15.780;2023-02-03T12:34:54;4.80;99.90
13346;DHT22;6742;48.036;15.780;2023-02-03T12:37:25;4.80;99.90
13346;DHT22;6742;48.036;15.780;2023-02-03T12:39:57;4.80;99.90
13346;DHT22;6742;48.036;15.780;2023-02-03T12:42:29;4.80;99.90
13346;DHT22;6742;48.036;15.780;2023-02-03T12:45:00;4.70;99.90
13346;DHT22;6742;48.036;15.780;2023-02-03T12:47:34;4.70;99.90
13346;DHT22;6742;48.036;15.780;2023-02-03T12:50:09;4.70;99.90
13346;DHT22;6742;48.036;15.780;2023-02-03T12:52:44;4.70;99.90
13346;DHT22;6742;48.036;15.780;2023-02-03T12:55:19;4.70;99.90
13346;DHT22;6742;48.036;15.780;2023-02-03T12:57:51;4.70;99.90
13346;DHT22;6742;48.036;15.780;2023-02-03T13:00:29;4.60;99.90
13346;DHT22;6742;48.036;15.780;2023-02-03T13:03:08;4.60;99.90
13346;DHT22;6742;48.036;15.780;2023-02-03T13:05:41;4.60;99.90
13346;DHT22;6742;48.036;15.780;2023-02-03T13:08:19;4.60;99.90
13346;DHT22;6742;48.036;15.780;2023-02-03T13:10:50;4.60;99.90
13346;DHT22;6742;48.036;15.780;2023-02-03T13:13:25;4.60;99.90
13346;DHT22;6742;48.036;15.780;2023-02-03T13:15:57;4.70;99.90
13346;DHT22;6742;48.036;15.780;2023-02-03T13:18:30;4.70;99.90
13346;DHT22;6742;48.036;15.780;2023-02-03T13:20:58;4.70;99.90
13346;DHT22;6742;48.036;15.780;2023-02-03T13:23:25;4.80;99.90
13346;DHT22;6742;48.036;15.780;2023-02-03T13:26:11;4.80;99.90
13346;DHT22;6742;48.036;15.780;2023-02-03T13:29:04;4.80;99.90
13346;DHT22;6742;48.036;15.780;2023-02-03T13:31:41;4.70;99.90
13346;DHT22;6742;48.036;15.780;2023-02-03T13:34:32;4.70;99.90
13346;DHT22;6742;48.036;15.780;2023-02-03T13:37:40;4.60;99.90
13346;DHT22;6742;48.036;15.780;2023-02-03T13:40:19;4.60;99.90
13346;DHT22;6742;48.036;15.780;2023-02-03T13:42:52;4.60;99.90
13346;DHT22;6742;48.036;15.780;2023-02-03T13:45:25;4.60;99.90
13346;DHT22;6742;48.036;15.780;2023-02-03T13:47:55;4.50;99.90
13346;DHT22;6742;48.036;15.780;2023-02-03T13:50:27;4.50;99.90
13346;DHT22;6742;48.036;15.780;2023-02-03T13:52:58;4.50;99.90
13346;DHT22;6742;48.036;15.780;2023-02-03T13:55:33;4.50;99.90
13346;DHT22;6742;48.036;15.780;2023-02-03T13:58:02;4.40;99.90
13346;DHT22;6742;48.036;15.780;2023-02-03T14:00:59;4.40;99.90
13346;DHT22;6742;48.036;15.780;2023-02-03T14:03:42;4.40;99.90
13346;DHT22;6742;48.036;15.780;2023-02-03T14:09:36;4.40;99.90
13346;DHT22;6742;48.036;15.780;2023-02-03T14:12:29;4.40;99.90
13346;DHT22;6742;48.036;15.780;2023-02-03T14:15:00;4.40;99.90
13346;DHT22;6742;48.036;15.780;2023-02-03T14:23:33;4.40;99.90
13346;DHT22;6742;48.036;15.780;2023-02-03T14:26:04;4.40;99.90
13346;DHT22;6742;48.036;15.780;2023-02-03T14:28:39;4.40;99.90
13346;DHT22;6742;48.036;15.780;2023-02-03T14:31:10;4.40;99.90
13346;DHT22;6742;48.036;15.780;2023-02-03T14:34:06;4.40;99.90
13346;DHT22;6742;48.036;15.780;2023-02-03T14:36:49;4.40;99.90
13346;DHT22;6742;48.036;15.780;2023-02-03T14:45:49;4.30;99.90
13346;DHT22;6742;48.036;15.780;2023-02-03T14:48:42;4.30;99.90
13346;DHT22;6742;48.036;15.780;2023-02-03T14:51:18;4.30;99.90
13346;DHT22;6742;48.036;15.780;2023-02-03T14:54:03;4.20;99.90
13346;DHT22;6742;48.036;15.780;2023-02-03T14:56:45;4.20;99.90
13346;DHT22;6742;48.036;15.780;2023-02-03T14:59:36;4.10;99.90
13346;DHT22;6742;48.036;15.780;2023-02-03T15:02:10;4.10;99.90
13346;DHT22;6742;48.036;15.780;2023-02-03T15:04:39;4.10;99.90
13346;DHT22;6742;48.036;15.780;2023-02-03T15:07:07;4.10;99.90
13346;DHT22;6742;48.036;15.780;2023-02-03T15:09:38;4.10;99.90
13346;DHT22;6742;48.036;15.780;2023-02-03T15:12:21;4.10;99.90
13346;DHT22;6742;48.036;15.780;2023-02-03T15:14:49;4.00;99.90
13346;DHT22;6742;48.036;15.780;2023-02-03T15:17:21;4.00;99.90
13346;DHT22;6742;48.036;15.780;2023-02-03T15:19:49;4.00;99.90
13346;DHT22;6742;48.036;15.780;2023-02-03T15:22:27;4.00;99.90
13346;DHT22;6742;48.036;15.780;2023-02-03T15:24:57;4.00;99.90
13346;DHT22;6742;48.036;15.780;2023-02-03T15:27:27;4.00;99.90
13346;DHT22;6742;48.036;15.780;2023-02-03T15:29:55;4.00;99.90
13346;DHT22;6742;48.036;15.780;2023-02-03T15:32:25;4.00;99.90
13346;DHT22;6742;48.036;15.780;2023-02-03T15:34:55;4.00;99.90
13346;DHT22;6742;48.036;15.780;2023-02-03T15:37:29;4.00;99.90
13346;DHT22;6742;48.036;15.780;2023-02-03T15:40:00;4.00;99.90
13346;DHT22;6742;48.036;15.780;2023-02-03T15:42:34;3.90;99.90
13346;DHT22;6742;48.036;15.780;2023-02-03T15:45:06;3.90;99.90
13346;DHT22;6742;48.036;15.780;2023-02-03T15:47:37;3.90;99.90
13346;DHT22;6742;48.036;15.780;2023-02-03T15:50:26;3.90;99.90
13346;DHT22;6742;48.036;15.780;2023-02-03T15:52:57;3.80;99.90
13346;DHT22;6742;48.036;15.780;2023-02-03T15:55:31;3.80;99.90
13346;DHT22;6742;48.036;15.780;2023-02-03T15:58:04;3.80;99.90
13346;DHT22;6742;48.036;15.780;2023-02-03T16:00:35;3.80;99.90
13346;DHT22;6742;48.036;15.780;2023-02-03T16:03:13;3.80;99.90
13346;DHT22;6742;48.036;15.780;2023-02-03T16:05:42;3.90;99.90
13346;DHT22;6742;48.036;15.780;2023-02-03T16:08:27;3.90;99.90
13346;DHT22;6742;48.036;15.780;2023-02-03T16:10:54;3.90;99.90
13346;DHT22;6742;48.036;15.780;2023-02-03T16:13:25;3.90;99.90
13346;DHT22;6742;48.036;15.780;2023-02-03T16:16:13;3.90;99.90
13346;DHT22;6742;48.036;15.780;2023-02-03T16:18:49;3.90;99.90
13346;DHT22;6742;48.036;15.780;2023-02-03T16:21:26;3.90;99.90
13346;DHT22;6742;48.036;15.780;2023-02-03T16:23:53;3.90;99.90
13346;DHT22;6742;48.036;15.780;2023-02-03T16:26:21;3.90;99.90
13346;DHT22;6742;48.036;15.780;2023-02-03T16:29:11;3.90;99.90
13346;DHT22;6742;48.036;15.780;2023-02-03T16:31:57;3.90;99.90
13346;DHT22;6742;48.036;15.780;2023-02-03T16:34:41;3.90;99.90